createdAt,value
2019-05-13T00:02:04.537Z,1.60
2019-05-13T00:04:34.086Z,1.90
2019-05-13T00:07:04.736Z,3.53
2019-05-13T00:09:34.278Z,2.40
2019-05-13T00:12:04.677Z,2.03
2019-05-13T00:14:34.536Z,1.60
2019-05-13T00:17:04.407Z,2.17
2019-05-13T00:19:34.048Z,1.90
2019-05-13T00:22:03.733Z,3.93
2019-05-13T00:24:33.898Z,2.90
2019-05-13T00:27:03.994Z,2.20
2019-05-13T00:29:34.092Z,2.97
2019-05-13T00:32:04.851Z,2.37
2019-05-13T00:34:34.604Z,4.03
2019-05-13T00:37:11.145Z,2.20
2019-05-13T00:39:34.814Z,2.20
2019-05-13T00:42:04.265Z,3.63
2019-05-13T00:44:33.944Z,1.90
2019-05-13T00:47:04.423Z,2.50
2019-05-13T00:49:34.723Z,1.80
2019-05-13T00:52:04.254Z,2.23
2019-05-13T00:54:34.160Z,4.20
2019-05-13T00:57:04.301Z,2.03
2019-05-13T00:59:34.162Z,3.27
2019-05-13T01:02:04.066Z,2.70
2019-05-13T01:04:33.943Z,3.57
2019-05-13T01:07:04.415Z,2.90
2019-05-13T01:09:34.212Z,3.93
2019-05-13T01:12:04.542Z,8.27
2019-05-13T01:14:34.262Z,3.03
2019-05-13T01:17:03.994Z,2.97
2019-05-13T01:19:34.193Z,6.50
2019-05-13T01:22:03.751Z,4.93
2019-05-13T01:24:33.602Z,4.07
2019-05-13T01:27:04.147Z,3.57
2019-05-13T01:29:34.416Z,2.77
2019-05-13T01:32:04.544Z,5.87
2019-05-13T01:34:34.132Z,5.23
2019-05-13T01:37:04.288Z,3.20
2019-05-13T01:39:35.045Z,3.13
2019-05-13T01:42:04.438Z,2.83
2019-05-13T01:44:33.896Z,5.13
2019-05-13T01:47:04.605Z,3.53
2019-05-13T01:49:54.230Z,3.67
2019-05-13T01:52:23.836Z,4.87
2019-05-13T01:54:54.347Z,3.13
2019-05-13T01:57:24.024Z,5.03
2019-05-13T01:59:53.888Z,2.80
2019-05-13T02:02:24.247Z,3.63
2019-05-13T02:04:53.637Z,9.07
2019-05-13T02:07:24.426Z,4.27
2019-05-13T02:09:54.362Z,5.67
2019-05-13T02:12:24.020Z,6.13
2019-05-13T02:14:53.891Z,5.27
2019-05-13T02:17:23.502Z,3.83
2019-05-13T02:19:54.049Z,3.33
2019-05-13T02:22:24.761Z,4.77
2019-05-13T02:24:54.594Z,10.27
2019-05-13T02:27:25.572Z,4.67
2019-05-13T02:29:54.797Z,5.20
2019-05-13T02:32:24.383Z,4.40
2019-05-13T02:34:53.714Z,6.00
2019-05-13T02:37:23.359Z,5.00
2019-05-13T02:39:53.243Z,5.47
2019-05-13T02:42:23.030Z,6.37
2019-05-13T02:44:53.128Z,8.17
2019-05-13T02:47:22.813Z,7.60
2019-05-13T02:49:53.356Z,5.63
2019-05-13T02:52:22.815Z,5.63
2019-05-13T02:54:52.796Z,6.80
2019-05-13T02:57:23.394Z,5.17
2019-05-13T02:59:52.902Z,6.40
2019-05-13T03:02:22.590Z,5.20
2019-05-13T03:04:52.449Z,6.27
2019-05-13T03:07:23.262Z,5.17
2019-05-13T03:09:53.039Z,5.80
2019-05-13T03:12:23.031Z,5.97
2019-05-13T03:14:53.280Z,6.10
2019-05-13T03:17:28.249Z,6.20
2019-05-13T03:19:57.615Z,7.23
2019-05-13T03:22:27.007Z,7.57
2019-05-13T03:24:56.253Z,6.97
2019-05-13T03:27:25.563Z,7.80
2019-05-13T03:29:55.006Z,8.70
2019-05-13T03:32:26.114Z,8.27
2019-05-13T03:34:56.860Z,6.90
2019-05-13T03:37:27.430Z,9.80
2019-05-13T03:39:57.445Z,9.13
2019-05-13T03:42:27.988Z,6.90
2019-05-13T03:44:58.889Z,7.63
2019-05-13T03:47:32.804Z,8.00
2019-05-13T03:50:03.583Z,12.67
2019-05-13T03:52:33.596Z,10.77
2019-05-13T03:55:03.454Z,11.30
2019-05-13T03:57:33.951Z,12.57
2019-05-13T04:00:03.908Z,10.47
2019-05-13T04:02:33.770Z,9.50
2019-05-13T04:05:04.301Z,9.57
2019-05-13T04:07:34.024Z,10.27
2019-05-13T04:10:03.809Z,9.27
2019-05-13T04:12:33.586Z,10.63
2019-05-13T04:15:03.727Z,10.10
2019-05-13T04:17:33.391Z,10.40
2019-05-13T04:20:03.191Z,11.90
2019-05-13T04:22:33.319Z,10.37
2019-05-13T04:25:02.730Z,9.43
2019-05-13T04:27:32.820Z,10.50
2019-05-13T04:30:03.534Z,13.03
2019-05-13T04:32:33.722Z,11.17
2019-05-13T04:35:04.128Z,12.60
2019-05-13T04:37:33.735Z,10.93
2019-05-13T04:40:03.863Z,12.50
2019-05-13T04:42:33.590Z,10.50
2019-05-13T04:45:03.606Z,12.17
2019-05-13T04:47:33.529Z,11.10
2019-05-13T04:50:03.577Z,10.30
2019-05-13T04:52:33.242Z,11.33
2019-05-13T04:55:03.615Z,11.13
2019-05-13T04:57:33.429Z,9.93
2019-05-13T05:00:04.226Z,11.93
2019-05-13T05:03:03.392Z,11.67
2019-05-13T05:06:12.025Z,10.80
2019-05-13T05:09:07.085Z,12.23
2019-05-13T05:12:32.116Z,12.03
2019-05-13T05:15:32.243Z,12.00
2019-05-13T05:18:26.085Z,9.67
2019-05-13T05:21:25.582Z,9.63
2019-05-13T05:24:32.353Z,13.93
2019-05-13T05:27:57.908Z,12.47
2019-05-13T05:30:54.879Z,7.77
2019-05-13T05:34:21.920Z,11.80
2019-05-13T05:37:31.280Z,8.70
2019-05-13T05:40:03.236Z,9.53
2019-05-13T05:42:34.983Z,8.70
2019-05-13T05:45:05.054Z,8.03
2019-05-13T05:47:36.672Z,10.47
2019-05-13T05:50:06.443Z,8.00
2019-05-13T05:52:37.172Z,11.27
2019-05-13T05:55:07.775Z,10.33
2019-05-13T05:57:41.936Z,7.37
2019-05-13T06:00:12.475Z,7.63
2019-05-13T06:02:44.382Z,6.77
2019-05-13T06:05:21.350Z,7.77
2019-05-13T06:07:51.414Z,7.13
2019-05-13T06:10:22.573Z,8.33
2019-05-13T06:12:52.373Z,5.00
2019-05-13T06:15:22.524Z,8.10
2019-05-13T06:17:52.123Z,7.37
2019-05-13T06:20:21.484Z,5.90
2019-05-13T06:22:51.553Z,9.13
2019-05-13T06:25:24.008Z,4.07
2019-05-13T06:27:53.307Z,13.13
2019-05-13T06:30:22.476Z,9.97
2019-05-13T06:32:52.829Z,7.57
2019-05-13T06:35:22.411Z,8.97
2019-05-13T06:38:02.452Z,9.70
2019-05-13T06:40:31.955Z,5.30
2019-05-13T06:43:01.515Z,7.17
2019-05-13T06:45:31.662Z,7.40
2019-05-13T06:48:02.410Z,10.43
2019-05-13T06:50:32.466Z,8.67
2019-05-13T06:53:02.872Z,8.93
2019-05-13T06:55:32.471Z,6.37
2019-05-13T06:58:02.330Z,8.73
2019-05-13T07:00:34.692Z,5.87
2019-05-13T07:03:03.742Z,5.63
2019-05-13T07:05:52.599Z,4.37
2019-05-13T07:08:24.625Z,10.88
2019-05-13T07:10:53.758Z,6.43
2019-05-13T07:13:24.384Z,5.83
2019-05-13T07:15:53.692Z,4.10
2019-05-13T07:18:22.928Z,5.83
2019-05-13T07:20:53.036Z,8.23
2019-05-13T07:23:22.818Z,7.20
2019-05-13T07:25:56.450Z,6.60
2019-05-13T07:28:25.752Z,6.05
2019-05-13T07:30:57.120Z,6.92
2019-05-13T07:33:26.521Z,8.90
2019-05-13T07:36:02.803Z,7.78
2019-05-13T07:38:32.454Z,7.85
2019-05-13T07:41:06.828Z,7.67
2019-05-13T07:43:36.047Z,7.42
2019-05-13T07:46:05.244Z,6.90
2019-05-13T07:48:34.296Z,6.30
2019-05-13T07:51:05.726Z,6.65
2019-05-13T07:53:34.977Z,7.25
2019-05-13T07:56:04.398Z,7.80
2019-05-13T07:58:36.997Z,8.63
2019-05-13T08:01:04.743Z,8.03
2019-05-13T08:03:34.197Z,10.70
2019-05-13T08:06:03.603Z,5.42
2019-05-13T08:08:32.845Z,6.37
2019-05-13T08:11:03.731Z,6.35
2019-05-13T08:13:32.868Z,6.70
2019-05-13T08:16:02.295Z,9.77
2019-05-13T08:18:32.132Z,5.97
2019-05-13T08:21:02.291Z,8.18
2019-05-13T08:23:32.396Z,6.05
2019-05-13T08:26:02.372Z,10.20
2019-05-13T08:28:32.447Z,8.75
2019-05-13T08:31:02.349Z,6.17
2019-05-13T08:33:32.372Z,10.80
2019-05-13T08:36:01.893Z,4.67
2019-05-13T08:38:31.927Z,5.28
2019-05-13T08:41:02.084Z,5.85
2019-05-13T08:43:31.792Z,7.20
2019-05-13T08:46:02.279Z,5.78
2019-05-13T08:48:32.403Z,10.88
2019-05-13T08:51:03.058Z,7.37
2019-05-13T08:53:32.780Z,3.75
2019-05-13T08:56:02.667Z,7.42
2019-05-13T08:58:32.261Z,4.80
2019-05-13T09:01:02.191Z,6.67
2019-05-13T09:03:32.914Z,5.83
2019-05-13T09:06:02.904Z,6.00
2019-05-13T09:08:32.557Z,4.62
2019-05-13T09:11:02.809Z,3.80
2019-05-13T09:13:32.954Z,10.13
2019-05-13T09:16:02.715Z,9.18
2019-05-13T09:18:33.152Z,4.60
2019-05-13T09:21:03.765Z,6.03
2019-05-13T09:23:32.898Z,6.50
2019-05-13T09:26:02.749Z,4.60
2019-05-13T09:28:32.559Z,6.03
2019-05-13T09:31:02.323Z,5.45
2019-05-13T09:33:32.829Z,4.05
2019-05-13T09:36:02.507Z,3.00
2019-05-13T09:38:32.757Z,5.00
2019-05-13T09:41:02.546Z,3.22
2019-05-13T09:43:31.814Z,5.97
2019-05-13T09:46:01.717Z,5.25
2019-05-13T09:48:32.126Z,6.00
2019-05-13T09:51:02.460Z,3.35
2019-05-13T09:53:32.689Z,6.22
2019-05-13T09:56:02.525Z,3.90
2019-05-13T09:58:33.076Z,7.08
2019-05-13T10:01:02.781Z,4.95
2019-05-13T10:03:33.172Z,3.58
2019-05-13T10:06:02.826Z,5.97
2019-05-13T10:08:32.910Z,4.05
2019-05-13T10:11:02.286Z,3.40
2019-05-13T10:13:32.544Z,3.50
2019-05-13T10:16:01.726Z,5.40
2019-05-13T10:18:32.582Z,4.05
2019-05-13T10:21:02.649Z,2.05
2019-05-13T10:23:33.173Z,5.33
2019-05-13T10:26:06.226Z,4.55
2019-05-13T10:28:35.878Z,4.37
2019-05-13T10:31:05.659Z,4.33
2019-05-13T10:33:34.896Z,4.58
2019-05-13T10:36:04.303Z,5.60
2019-05-13T10:38:33.792Z,4.28
2019-05-13T10:41:03.810Z,6.12
2019-05-13T10:43:39.094Z,3.02
2019-05-13T10:46:04.645Z,3.42
2019-05-13T10:48:34.004Z,6.58
2019-05-13T10:51:03.351Z,4.37
2019-05-13T10:53:32.544Z,3.65
2019-05-13T10:56:03.114Z,6.33
2019-05-13T10:58:32.974Z,4.00
2019-05-13T11:01:03.057Z,4.60
2019-05-13T11:03:33.251Z,5.47
2019-05-13T11:06:02.797Z,3.95
2019-05-13T11:08:33.017Z,6.97
2019-05-13T11:11:03.377Z,3.42
2019-05-13T11:13:50.864Z,6.40
2019-05-13T11:16:03.626Z,3.58
2019-05-13T11:18:33.088Z,5.22
2019-05-13T11:21:03.036Z,2.60
2019-05-13T11:23:32.551Z,2.95
2019-05-13T11:26:03.128Z,5.37
2019-05-13T11:28:34.000Z,3.10
2019-05-13T11:31:03.739Z,3.47
2019-05-13T11:33:33.056Z,3.12
2019-05-13T11:36:03.353Z,2.10
2019-05-13T11:38:33.450Z,2.87
2019-05-13T11:41:03.460Z,8.90
2019-05-13T11:43:34.036Z,3.50
2019-05-13T11:46:03.491Z,4.30
2019-05-13T11:48:32.786Z,2.58
2019-05-13T11:51:03.898Z,3.65
2019-05-13T11:53:34.492Z,5.00
2019-05-13T11:56:04.289Z,2.15
2019-05-13T11:58:33.528Z,4.92
2019-05-13T12:01:03.976Z,4.35
2019-05-13T12:03:33.609Z,4.95
2019-05-13T12:06:02.930Z,5.33
2019-05-13T12:08:34.307Z,4.25
2019-05-13T12:11:05.025Z,3.72
2019-05-13T12:13:35.076Z,3.58
2019-05-13T12:16:04.489Z,4.83
2019-05-13T12:18:33.791Z,2.27
2019-05-13T12:21:04.110Z,5.97
2019-05-13T12:23:33.621Z,5.75
2019-05-13T12:26:03.989Z,4.28
2019-05-13T12:28:33.854Z,3.70
2019-05-13T12:31:03.467Z,5.50
2019-05-13T12:33:33.006Z,4.33
2019-05-13T12:36:02.536Z,6.15
2019-05-13T12:41:04.942Z,2.95
2019-05-13T12:43:33.750Z,3.98
2019-05-13T12:46:03.434Z,4.85
2019-05-13T12:48:32.659Z,4.92
2019-05-13T12:51:03.058Z,4.25
2019-05-13T12:53:32.750Z,7.42
2019-05-13T12:56:03.374Z,6.97
2019-05-13T12:58:34.217Z,3.75
2019-05-13T13:01:03.648Z,4.65
2019-05-13T13:03:33.120Z,4.47
2019-05-13T13:06:25.687Z,10.55
2019-05-13T13:08:42.992Z,3.12
2019-05-13T13:11:04.270Z,3.27
2019-05-13T13:13:56.863Z,4.22
2019-05-13T13:16:04.717Z,5.83
2019-05-13T13:18:34.055Z,3.35
2019-05-13T13:21:07.208Z,3.77
2019-05-13T13:23:34.399Z,4.10
2019-05-13T13:26:04.088Z,5.40
2019-05-13T13:28:34.316Z,5.42
2019-05-13T13:31:04.390Z,4.40
2019-05-13T13:33:34.581Z,3.27
2019-05-13T13:36:05.667Z,3.62
2019-05-13T13:38:35.072Z,3.40
2019-05-13T13:41:04.548Z,3.95
2019-05-13T13:43:37.001Z,5.97
2019-05-13T13:46:25.311Z,2.08
2019-05-13T13:48:35.841Z,3.72
2019-05-13T13:51:05.364Z,3.27
2019-05-13T13:53:34.864Z,3.20
2019-05-13T13:56:04.764Z,5.42
2019-05-13T13:58:34.349Z,5.30
2019-05-13T14:01:11.573Z,5.35
2019-05-13T14:03:34.952Z,4.42
2019-05-13T14:06:06.537Z,3.15
2019-05-13T14:06:33.066Z,3.37
2019-05-13T14:08:35.499Z,2.10
2019-05-13T14:11:04.582Z,3.00
2019-05-13T14:13:34.850Z,5.20
2019-05-13T14:16:22.442Z,4.17
2019-05-13T14:18:44.870Z,3.37
2019-05-13T14:21:14.442Z,2.27
2019-05-13T14:23:43.824Z,6.58
2019-05-13T14:26:13.208Z,3.45
2019-05-13T14:28:42.406Z,6.42
2019-05-13T14:31:13.362Z,3.12
2019-05-13T14:33:42.645Z,7.05
2019-05-13T14:36:12.340Z,5.90
2019-05-13T14:38:41.796Z,4.67
2019-05-13T14:41:12.350Z,5.85
2019-05-13T14:43:42.080Z,3.27
2019-05-13T14:46:12.609Z,3.12
2019-05-13T14:48:43.334Z,4.05
2019-05-13T14:51:13.207Z,5.40
2019-05-13T14:53:42.440Z,4.30
2019-05-13T14:56:14.272Z,3.45
2019-05-13T14:58:42.396Z,2.42
2019-05-13T15:01:18.583Z,3.92
2019-05-13T15:03:42.816Z,6.05
2019-05-13T15:06:12.526Z,4.03
2019-05-13T15:08:42.277Z,3.22
2019-05-13T15:11:12.546Z,6.05
2019-05-13T15:13:42.611Z,4.67
2019-05-13T15:16:12.263Z,3.02
2019-05-13T15:18:41.833Z,4.55
2019-05-13T15:21:12.144Z,3.12
2019-05-13T15:23:42.349Z,5.50
2019-05-13T15:26:11.925Z,4.80
2019-05-13T15:28:42.235Z,5.05
2019-05-13T15:31:11.692Z,4.42
2019-05-13T15:33:41.576Z,6.20
2019-05-13T15:36:12.016Z,3.92
2019-05-13T15:38:41.570Z,3.85
2019-05-13T15:41:15.278Z,5.03
2019-05-13T15:43:42.457Z,5.10
2019-05-13T15:46:12.650Z,6.97
2019-05-13T15:48:42.297Z,3.52
2019-05-13T15:51:11.551Z,3.75
2019-05-13T15:53:43.529Z,3.35
2019-05-13T15:56:12.543Z,6.28
2019-05-13T15:58:44.634Z,2.37
2019-05-13T16:01:15.294Z,3.17
2019-05-13T16:03:44.740Z,5.50
2019-05-13T16:06:14.253Z,3.30
2019-05-13T16:08:43.839Z,5.20
2019-05-13T16:11:16.480Z,5.87
2019-05-13T16:13:46.273Z,3.05
2019-05-13T16:16:15.976Z,8.25
2019-05-13T16:18:45.308Z,4.35
2019-05-13T16:21:14.699Z,2.95
2019-05-13T16:23:43.902Z,3.05
2019-05-13T16:26:13.305Z,3.27
2019-05-13T16:28:42.980Z,5.62
2019-05-13T16:31:12.151Z,6.08
2019-05-13T16:33:41.698Z,3.25
2019-05-13T16:36:12.627Z,2.85
2019-05-13T16:38:42.532Z,3.65
2019-05-13T16:41:12.684Z,4.40
2019-05-13T16:43:42.762Z,4.80
2019-05-13T16:46:12.418Z,5.97
2019-05-13T16:48:42.864Z,5.17
2019-05-13T16:51:12.751Z,6.33
2019-05-13T16:53:42.434Z,5.80
2019-05-13T16:56:25.613Z,3.45
2019-05-13T16:58:42.725Z,4.58
2019-05-13T17:01:12.062Z,3.42
2019-05-13T17:03:41.709Z,5.10
2019-05-13T17:06:12.728Z,5.08
2019-05-13T17:08:42.455Z,4.17
2019-05-13T17:11:12.036Z,4.03
2019-05-13T17:13:42.208Z,4.10
2019-05-13T17:16:11.945Z,6.72
2019-05-13T17:18:41.704Z,3.72
2019-05-13T17:21:11.386Z,5.08
2019-05-13T17:23:41.858Z,5.70
2019-05-13T17:26:11.749Z,5.00
2019-05-13T17:28:41.753Z,2.17
2019-05-13T17:31:11.693Z,4.30
2019-05-13T17:33:41.295Z,4.80
2019-05-13T17:36:12.299Z,2.52
2019-05-13T17:38:42.081Z,5.28
2019-05-13T17:41:12.245Z,2.95
2019-05-13T17:43:41.819Z,5.92
2019-05-13T17:46:11.108Z,2.60
2019-05-13T17:48:41.684Z,3.70
2019-05-13T17:51:13.103Z,3.55
2019-05-13T17:53:42.178Z,5.75
2019-05-13T17:56:11.381Z,4.60
2019-05-13T17:58:42.027Z,2.50
2019-05-13T18:01:12.064Z,2.22
2019-05-13T18:03:41.375Z,2.95
2019-05-13T18:06:11.477Z,3.80
2019-05-13T18:08:41.257Z,3.17
2019-05-13T18:11:11.367Z,2.83
2019-05-13T18:13:43.600Z,2.35
2019-05-13T18:16:12.562Z,2.72
2019-05-13T18:18:46.912Z,4.78
2019-05-13T18:21:13.005Z,3.92
2019-05-13T18:23:42.359Z,3.55
2019-05-13T18:26:12.424Z,2.25
2019-05-13T18:28:42.269Z,3.40
2019-05-13T18:31:12.253Z,5.55
2019-05-13T18:33:42.437Z,4.25
2019-05-13T18:36:12.095Z,6.78
2019-05-13T18:38:41.870Z,8.83
2019-05-13T18:41:11.992Z,3.37
2019-05-13T18:43:41.455Z,3.02
2019-05-13T18:46:12.407Z,6.83
2019-05-13T18:48:57.763Z,3.00
2019-05-13T18:51:12.877Z,6.03
2019-05-13T18:53:42.411Z,2.50
2019-05-13T18:56:12.389Z,5.55
2019-05-13T18:58:41.971Z,3.50
2019-05-13T19:01:11.337Z,2.72
2019-05-13T19:03:41.431Z,6.37
2019-05-13T19:06:11.692Z,3.05
2019-05-13T19:08:41.518Z,2.95
2019-05-13T19:11:11.810Z,3.30
2019-05-13T19:13:48.564Z,4.05
2019-05-13T19:16:17.680Z,4.97
2019-05-13T19:18:51.599Z,3.85
2019-05-13T19:21:21.891Z,3.65
2019-05-13T19:23:51.411Z,4.60
2019-05-13T19:26:21.814Z,4.92
2019-05-13T19:28:51.637Z,3.83
2019-05-13T19:31:22.085Z,2.75
2019-05-13T19:33:52.104Z,4.20
2019-05-13T19:36:21.753Z,3.08
2019-05-13T19:38:52.192Z,5.37
2019-05-13T19:41:22.237Z,3.40
2019-05-13T19:43:51.758Z,2.62
2019-05-13T19:46:21.075Z,7.30
2019-05-13T19:48:52.192Z,3.95
2019-05-13T19:51:21.714Z,6.00
2019-05-13T19:53:51.684Z,3.08
2019-05-13T19:56:21.502Z,2.67
2019-05-13T19:58:51.080Z,3.45
2019-05-13T20:01:21.641Z,2.33
2019-05-13T20:03:51.603Z,3.75
2019-05-13T20:06:21.392Z,3.90
2019-05-13T20:09:09.765Z,2.42
2019-05-13T20:11:39.206Z,2.52
2019-05-13T20:14:08.435Z,2.25
2019-05-13T20:16:37.563Z,1.82
2019-05-13T20:19:06.900Z,3.87
2019-05-13T20:21:36.131Z,3.27
2019-05-13T20:24:05.321Z,3.58
2019-05-13T20:26:35.762Z,2.67
2019-05-13T20:29:04.999Z,4.83
2019-05-13T20:31:34.490Z,2.00
2019-05-13T20:34:03.755Z,2.45
2019-05-13T20:36:32.945Z,4.37
2019-05-13T20:39:02.282Z,1.92
2019-05-13T20:41:31.774Z,3.05
2019-05-13T20:44:01.486Z,3.58
2019-05-13T20:46:32.720Z,1.73
2019-05-13T20:49:02.209Z,4.60
2019-05-13T20:51:31.492Z,4.20
2019-05-13T20:54:02.368Z,3.60
2019-05-13T20:56:31.870Z,4.35
2019-05-13T20:59:01.005Z,2.40
2019-05-13T21:01:30.227Z,2.70
2019-05-13T21:04:01.664Z,2.95
2019-05-13T21:06:31.597Z,3.50
2019-05-13T21:09:01.579Z,4.03
2019-05-13T21:11:31.142Z,4.70
2019-05-13T21:14:01.188Z,3.57
2019-05-13T21:16:30.823Z,2.80
2019-05-13T21:19:01.877Z,3.22
2019-05-13T21:21:31.813Z,2.60
2019-05-13T21:24:03.795Z,6.00
2019-05-13T21:26:42.157Z,3.33
2019-05-13T21:29:11.722Z,3.80
2019-05-13T21:31:42.890Z,3.50
2019-05-13T21:34:15.222Z,6.62
2019-05-13T21:36:51.796Z,4.12
2019-05-13T21:39:21.409Z,4.40
2019-05-13T21:41:53.835Z,5.30
2019-05-13T21:44:24.044Z,5.47
2019-05-13T21:46:53.851Z,3.37
2019-05-13T21:49:27.222Z,4.50
2019-05-13T21:51:59.707Z,8.03
2019-05-13T21:54:33.651Z,6.17
2019-05-13T21:57:05.964Z,5.50
2019-05-13T21:59:34.929Z,5.33
2019-05-13T22:02:08.969Z,5.60
2019-05-13T22:04:38.721Z,4.20
2019-05-13T22:07:12.115Z,5.45
2019-05-13T22:10:04.346Z,4.10
2019-05-13T22:12:33.498Z,3.97
2019-05-13T22:15:03.185Z,7.17
2019-05-13T22:17:34.372Z,6.07
2019-05-13T22:20:07.791Z,5.65
2019-05-13T22:22:47.152Z,4.50
2019-05-13T22:25:16.433Z,6.53
2019-05-13T22:27:45.773Z,5.00
2019-05-13T22:30:16.039Z,5.17
2019-05-13T22:32:45.168Z,7.23
2019-05-13T22:35:14.785Z,5.53
2019-05-13T22:37:44.117Z,4.37
2019-05-13T22:40:13.270Z,7.53
2019-05-13T22:42:42.396Z,6.53
2019-05-13T22:45:11.857Z,4.67
2019-05-13T22:47:41.717Z,4.30
2019-05-13T22:50:17.213Z,5.22
2019-05-13T22:52:46.449Z,9.00
2019-05-13T22:55:17.336Z,4.30
2019-05-13T22:57:46.629Z,3.77
2019-05-13T23:00:15.889Z,6.33
2019-05-13T23:02:45.220Z,14.27
2019-05-13T23:05:14.469Z,5.50
2019-05-13T23:07:43.707Z,5.33
2019-05-13T23:10:13.411Z,8.33
2019-05-13T23:12:42.519Z,6.30
2019-05-13T23:15:12.102Z,4.97
2019-05-13T23:17:41.678Z,6.33
2019-05-13T23:20:11.067Z,4.37
2019-05-13T23:22:41.513Z,4.40
2019-05-13T23:25:12.204Z,6.13
2019-05-13T23:27:41.655Z,8.00
2019-05-13T23:30:11.640Z,5.93
2019-05-13T23:32:41.105Z,6.87
2019-05-13T23:35:11.195Z,5.97
2019-05-13T23:37:41.674Z,6.83
2019-05-13T23:40:12.289Z,7.63
2019-05-13T23:42:41.489Z,5.80
2019-05-13T23:45:11.542Z,6.57
2019-05-13T23:47:41.800Z,5.13
2019-05-13T23:50:12.448Z,8.07
2019-05-13T23:52:41.955Z,4.97
2019-05-13T23:55:11.374Z,5.77
2019-05-13T23:57:42.135Z,4.90
